createdAt,value
2023-09-19T00:01:15.881Z,81.70
2023-09-19T00:03:44.499Z,84.50
2023-09-19T00:06:14.375Z,83.10
2023-09-19T00:08:45.082Z,84.20
2023-09-19T00:11:13.489Z,85.00
2023-09-19T00:13:41.792Z,86.00
2023-09-19T00:16:13.060Z,85.40
2023-09-19T00:18:43.590Z,83.30
2023-09-19T00:21:12.254Z,82.50
2023-09-19T00:23:42.006Z,79.70
2023-09-19T00:26:10.109Z,80.70
2023-09-19T00:28:38.285Z,81.00
2023-09-19T00:31:06.533Z,80.40
2023-09-19T00:33:35.338Z,80.30
2023-09-19T00:36:06.437Z,79.10
2023-09-19T00:38:34.637Z,78.50
2023-09-19T00:41:02.697Z,78.10
2023-09-19T00:43:35.520Z,76.40
2023-09-19T00:46:05.693Z,77.30
2023-09-19T00:48:36.518Z,78.30
2023-09-19T00:51:07.542Z,79.40
2023-09-19T00:53:36.660Z,81.10
2023-09-19T00:56:06.287Z,80.80
2023-09-19T00:58:36.370Z,81.00
2023-09-19T01:01:08.112Z,81.60
2023-09-19T01:03:36.843Z,82.60
2023-09-19T01:06:07.304Z,82.00
2023-09-19T01:08:37.443Z,81.20
2023-09-19T01:11:15.158Z,82.80
2023-09-19T01:14:05.124Z,82.10
2023-09-19T01:16:40.614Z,80.10
2023-09-19T01:19:26.618Z,79.20
2023-09-19T01:22:07.741Z,80.50
2023-09-19T01:25:17.259Z,81.10
2023-09-19T01:28:09.621Z,80.20
2023-09-19T01:30:45.558Z,80.50
2023-09-19T01:33:13.652Z,80.00
2023-09-19T01:35:41.752Z,80.50
2023-09-19T01:38:12.381Z,80.10
2023-09-19T01:40:45.089Z,80.00
2023-09-19T01:43:23.111Z,81.20
2023-09-19T01:46:01.681Z,82.80
2023-09-19T01:48:41.343Z,79.10
2023-09-19T01:51:11.403Z,79.10
2023-09-19T01:53:47.019Z,81.30
2023-09-19T01:56:21.098Z,84.40
2023-09-19T01:58:53.393Z,84.60
2023-09-19T02:01:26.259Z,83.70
2023-09-19T02:03:55.502Z,84.50
2023-09-19T02:06:26.406Z,82.80
2023-09-19T02:08:55.891Z,83.00
2023-09-19T02:11:24.651Z,81.50
2023-09-19T02:13:55.591Z,81.80
2023-09-19T02:16:25.390Z,82.60
2023-09-19T02:18:53.623Z,83.20
2023-09-19T02:21:22.862Z,83.90
2023-09-19T02:23:52.692Z,83.00
2023-09-19T02:26:21.682Z,83.10
2023-09-19T02:28:49.914Z,83.60
2023-09-19T02:31:18.707Z,84.10
2023-09-19T02:33:48.426Z,82.60
2023-09-19T02:36:18.456Z,83.00
2023-09-19T02:38:46.945Z,83.80
2023-09-19T02:41:15.178Z,84.60
2023-09-19T02:43:44.130Z,84.70
2023-09-19T02:46:13.220Z,84.40
2023-09-19T02:48:41.600Z,84.60
2023-09-19T02:51:11.160Z,84.30
2023-09-19T02:53:40.122Z,85.30
2023-09-19T02:56:08.520Z,85.10
2023-09-19T02:58:37.494Z,85.30
2023-09-19T03:01:12.514Z,86.10
2023-09-19T03:03:42.132Z,86.40
2023-09-19T03:06:11.897Z,88.70
2023-09-19T03:08:40.827Z,88.00
2023-09-19T03:11:12.409Z,86.60
2023-09-19T03:13:41.297Z,86.60
2023-09-19T03:16:10.016Z,86.20
2023-09-19T03:18:38.162Z,85.40
2023-09-19T03:21:06.433Z,84.90
2023-09-19T03:23:36.141Z,84.00
2023-09-19T03:26:06.137Z,84.20
2023-09-19T03:28:36.146Z,84.90
2023-09-19T03:31:05.402Z,85.10
2023-09-19T03:33:34.291Z,83.30
2023-09-19T03:36:06.149Z,84.00
2023-09-19T03:38:36.457Z,84.30
2023-09-19T03:41:05.215Z,84.80
2023-09-19T03:43:34.480Z,86.90
2023-09-19T03:46:05.537Z,85.60
2023-09-19T03:48:34.702Z,86.50
2023-09-19T03:51:03.478Z,85.70
2023-09-19T03:53:31.719Z,84.20
2023-09-19T03:56:02.147Z,83.60
2023-09-19T03:58:30.351Z,83.40
2023-09-19T04:00:58.983Z,84.60
2023-09-19T04:03:35.829Z,83.50
2023-09-19T04:06:04.225Z,84.70
2023-09-19T04:08:32.447Z,85.00
2023-09-19T04:11:02.015Z,84.50
2023-09-19T04:13:31.053Z,83.80
2023-09-19T04:15:59.262Z,83.90
2023-09-19T04:18:27.393Z,83.60
2023-09-19T04:20:57.083Z,84.20
2023-09-19T04:23:25.144Z,83.90
2023-09-19T04:25:53.352Z,83.50
2023-09-19T04:28:23.193Z,85.10
2023-09-19T04:30:51.385Z,85.70
2023-09-19T04:33:19.762Z,85.90
2023-09-19T04:35:50.792Z,86.80
2023-09-19T04:38:19.191Z,86.60
2023-09-19T04:40:47.282Z,88.50
2023-09-19T04:43:16.542Z,87.60
2023-09-19T04:45:45.998Z,87.10
2023-09-19T04:48:16.215Z,87.10
2023-09-19T04:50:44.900Z,86.90
2023-09-19T04:53:13.838Z,87.80
2023-09-19T04:55:41.961Z,88.60
2023-09-19T04:58:10.509Z,89.20
2023-09-19T05:00:38.608Z,88.50
2023-09-19T05:03:10.342Z,89.40
2023-09-19T05:05:39.980Z,88.00
2023-09-19T05:08:09.921Z,86.20
2023-09-19T05:10:38.737Z,85.20
2023-09-19T05:13:08.389Z,85.60
2023-09-19T05:15:36.707Z,86.10
2023-09-19T05:18:05.213Z,87.20
2023-09-19T05:20:36.659Z,82.90
2023-09-19T05:23:09.027Z,84.30
2023-09-19T05:25:40.125Z,85.10
2023-09-19T05:28:08.977Z,85.10
2023-09-19T05:30:39.724Z,85.40
2023-09-19T05:33:08.819Z,85.70
2023-09-19T05:36:03.973Z,85.80
2023-09-19T05:42:22.313Z,86.10
2023-09-19T05:44:50.485Z,84.60
2023-09-19T05:47:19.314Z,81.40
2023-09-19T05:49:49.253Z,80.90
2023-09-19T05:52:20.269Z,78.50
2023-09-19T05:54:48.406Z,78.10
2023-09-19T05:57:16.488Z,81.10
2023-09-19T05:59:44.882Z,82.50
2023-09-19T06:02:13.524Z,81.60
2023-09-19T06:04:42.715Z,82.50
2023-09-19T06:07:10.787Z,84.30
2023-09-19T06:09:40.294Z,83.70
2023-09-19T06:12:08.968Z,86.40
2023-09-19T06:14:37.013Z,86.20
2023-09-19T06:17:05.467Z,86.00
2023-09-19T06:19:34.036Z,86.40
2023-09-19T06:22:02.259Z,83.70
2023-09-19T06:24:30.635Z,84.70
2023-09-19T06:27:02.251Z,84.60
2023-09-19T06:29:30.290Z,84.00
2023-09-19T06:31:58.451Z,83.00
2023-09-19T06:34:27.208Z,85.80
2023-09-19T06:36:56.719Z,85.50
2023-09-19T06:39:24.898Z,85.90
2023-09-19T06:41:54.699Z,86.10
2023-09-19T06:44:25.797Z,84.40
2023-09-19T06:46:53.178Z,82.80
2023-09-19T06:49:21.412Z,80.40
2023-09-19T06:51:51.450Z,75.70
2023-09-19T06:54:19.700Z,76.40
2023-09-19T06:56:47.896Z,75.50
2023-09-19T06:59:16.383Z,77.60
2023-09-19T07:01:46.171Z,75.00
2023-09-19T07:04:14.608Z,72.60
2023-09-19T07:06:42.661Z,72.70
2023-09-19T07:09:11.573Z,75.80
2023-09-19T07:11:39.952Z,77.50
2023-09-19T07:14:08.152Z,77.10
2023-09-19T07:16:37.165Z,74.40
2023-09-19T07:19:06.796Z,74.20
2023-09-19T07:21:36.578Z,73.60
2023-09-19T07:24:04.938Z,76.30
2023-09-19T07:26:33.152Z,75.20
2023-09-19T07:29:03.363Z,68.30
2023-09-19T07:31:32.128Z,70.90
2023-09-19T07:34:00.330Z,71.90
2023-09-19T07:36:30.840Z,73.00
2023-09-19T07:39:09.475Z,72.80
2023-09-19T07:41:47.589Z,72.20
2023-09-19T07:44:15.680Z,75.10
2023-09-19T07:46:45.357Z,76.30
2023-09-19T07:49:13.893Z,76.60
2023-09-19T07:51:47.688Z,72.10
2023-09-19T07:54:16.156Z,73.10
2023-09-19T07:56:44.441Z,71.00
2023-09-19T07:59:12.750Z,64.70
2023-09-19T08:01:41.185Z,65.20
2023-09-19T08:04:10.160Z,65.70
2023-09-19T08:06:39.319Z,67.00
2023-09-19T08:09:12.295Z,60.40
2023-09-19T08:11:40.598Z,61.80
2023-09-19T08:14:09.910Z,57.50
2023-09-19T08:16:38.302Z,57.80
2023-09-19T08:19:06.886Z,63.60
2023-09-19T08:21:35.913Z,61.70
2023-09-19T08:24:05.560Z,57.90
2023-09-19T08:26:35.021Z,59.60
2023-09-19T08:29:07.057Z,64.50
2023-09-19T08:31:36.097Z,61.30
2023-09-19T08:34:04.380Z,58.70
2023-09-19T08:36:33.049Z,50.10
2023-09-19T08:39:01.181Z,47.20
2023-09-19T08:41:29.264Z,51.90
2023-09-19T08:44:02.737Z,54.70
2023-09-19T08:46:32.625Z,52.10
2023-09-19T08:49:06.948Z,45.60
2023-09-19T08:51:47.020Z,42.90
2023-09-19T08:54:24.544Z,47.20
2023-09-19T08:56:53.630Z,41.50
2023-09-19T08:59:26.148Z,46.50
2023-09-19T09:01:55.596Z,42.60
2023-09-19T09:04:27.160Z,45.80
2023-09-19T09:06:56.680Z,42.70
2023-09-19T09:09:24.854Z,41.10
2023-09-19T09:11:54.267Z,41.40
2023-09-19T09:14:25.778Z,44.40
2023-09-19T09:16:57.838Z,37.90
2023-09-19T09:19:26.193Z,39.30
2023-09-19T09:21:54.320Z,40.80
2023-09-19T09:24:35.114Z,37.60
2023-09-19T09:27:10.727Z,37.20
2023-09-19T09:29:50.547Z,38.60
2023-09-19T09:32:21.035Z,40.80
2023-09-19T09:34:52.561Z,37.00
2023-09-19T09:37:21.627Z,42.10
2023-09-19T09:39:54.668Z,35.00
2023-09-19T09:42:33.882Z,38.10
2023-09-19T09:45:29.549Z,38.20
2023-09-19T09:47:57.316Z,29.00
2023-09-19T09:50:30.594Z,29.80
2023-09-19T09:53:07.608Z,30.50
2023-09-19T09:56:00.918Z,33.40
2023-09-19T09:58:31.124Z,29.90
2023-09-19T10:01:05.722Z,29.70
2023-09-19T10:03:40.216Z,28.50
2023-09-19T10:06:27.956Z,27.70
2023-09-19T10:09:12.612Z,28.90
2023-09-19T10:11:45.622Z,29.10
2023-09-19T10:14:15.267Z,29.00
2023-09-19T10:16:49.200Z,29.90
2023-09-19T10:19:22.889Z,30.10
2023-09-19T10:21:52.093Z,23.90
2023-09-19T10:24:21.195Z,24.80
2023-09-19T10:26:51.909Z,21.10
2023-09-19T10:29:20.777Z,22.00
2023-09-19T10:31:54.635Z,22.60
2023-09-19T10:34:24.247Z,19.80
2023-09-19T10:36:53.754Z,22.20
2023-09-19T10:39:21.811Z,20.70
2023-09-19T10:41:55.471Z,19.30
2023-09-19T10:44:27.647Z,20.30
2023-09-19T10:46:57.777Z,21.80
2023-09-19T10:49:27.011Z,17.60
2023-09-19T10:51:59.566Z,17.20
2023-09-19T10:54:31.183Z,17.50
2023-09-19T10:57:00.317Z,21.80
2023-09-19T10:59:35.800Z,18.70
2023-09-19T11:02:20.219Z,17.60
2023-09-19T11:04:50.086Z,17.40
2023-09-19T11:07:18.243Z,19.60
2023-09-19T11:09:51.800Z,20.50
2023-09-19T11:12:50.888Z,18.40
2023-09-19T11:15:56.145Z,18.80
2023-09-19T11:18:56.996Z,14.60
2023-09-19T11:21:55.703Z,14.40
2023-09-19T11:24:37.181Z,14.50
2023-09-19T11:27:18.335Z,16.40
2023-09-19T11:29:47.720Z,14.60
2023-09-19T11:32:18.718Z,15.40
2023-09-19T11:34:51.690Z,16.70
2023-09-19T11:38:18.496Z,14.90
2023-09-19T11:40:56.425Z,15.40
2023-09-19T11:43:41.255Z,17.30
2023-09-19T11:46:10.043Z,14.00
2023-09-19T11:48:42.335Z,14.60
2023-09-19T11:51:28.861Z,14.40
2023-09-19T11:54:01.428Z,14.50
2023-09-19T11:56:32.598Z,16.20
2023-09-19T11:59:01.059Z,15.80
2023-09-19T12:01:34.782Z,15.00
2023-09-19T12:04:05.472Z,15.70
2023-09-19T12:06:36.410Z,14.80
2023-09-19T12:09:11.415Z,16.90
2023-09-19T12:11:45.459Z,16.70
2023-09-19T12:14:15.079Z,17.60
2023-09-19T12:16:53.655Z,16.80
2023-09-19T12:19:23.945Z,15.20
2023-09-19T12:22:05.437Z,16.20
2023-09-19T12:24:36.262Z,16.20
2023-09-19T12:27:08.854Z,15.90
2023-09-19T12:29:45.870Z,17.10
2023-09-19T12:32:18.400Z,15.30
2023-09-19T12:34:53.921Z,14.30
2023-09-19T12:37:24.167Z,14.10
2023-09-19T12:39:54.866Z,14.50
2023-09-19T12:42:24.707Z,16.20
2023-09-19T12:44:56.426Z,14.10
2023-09-19T12:47:25.869Z,14.80
2023-09-19T12:50:18.216Z,16.20
2023-09-19T12:52:50.303Z,16.80
2023-09-19T12:55:23.665Z,16.30
2023-09-19T12:58:04.405Z,15.00
2023-09-19T13:00:36.832Z,16.00
2023-09-19T13:03:23.450Z,17.20
2023-09-19T13:05:56.908Z,16.80
2023-09-19T13:08:30.500Z,15.50
2023-09-19T13:11:11.753Z,14.60
2023-09-19T13:13:41.386Z,13.30
2023-09-19T13:16:10.758Z,14.60
2023-09-19T13:18:51.997Z,13.60
2023-09-19T13:21:29.558Z,13.50
2023-09-19T13:24:22.357Z,10.50
2023-09-19T13:26:50.544Z,11.10
2023-09-19T13:29:19.711Z,7.80
2023-09-19T13:31:49.258Z,8.20
2023-09-19T13:34:18.762Z,10.80
2023-09-19T13:36:49.344Z,7.50
2023-09-19T13:39:19.353Z,8.00
2023-09-19T13:41:48.900Z,8.10
2023-09-19T13:44:18.228Z,7.80
2023-09-19T13:49:16.494Z,1.00
2023-09-19T13:51:45.332Z,1.00
2023-09-19T13:54:15.318Z,1.00
2023-09-19T13:56:45.203Z,1.00
2023-09-19T13:59:13.248Z,1.00
2023-09-19T14:01:43.020Z,1.00
2023-09-19T14:04:12.943Z,1.00
2023-09-19T14:06:44.333Z,1.00
2023-09-19T14:09:13.106Z,1.00
2023-09-19T14:11:43.321Z,1.00
2023-09-19T14:14:12.864Z,1.00
2023-09-19T14:16:43.083Z,1.00
2023-09-19T14:19:11.339Z,1.00
2023-09-19T14:21:40.344Z,1.00
2023-09-19T14:24:10.466Z,1.00
2023-09-19T14:26:38.649Z,1.00
2023-09-19T14:29:08.671Z,1.00
2023-09-19T14:31:41.138Z,1.00
2023-09-19T14:34:11.140Z,1.00
2023-09-19T14:36:40.513Z,1.00
2023-09-19T14:39:09.368Z,1.00
2023-09-19T14:41:37.756Z,1.00
2023-09-19T14:44:06.677Z,1.00
2023-09-19T14:46:34.834Z,1.00
2023-09-19T14:49:05.788Z,1.00
2023-09-19T14:51:33.881Z,1.00
2023-09-19T14:54:03.250Z,1.00
2023-09-19T14:56:32.327Z,1.00
2023-09-19T14:59:00.759Z,1.00
2023-09-19T15:01:29.052Z,1.00
2023-09-19T15:03:57.330Z,1.00
2023-09-19T15:06:27.737Z,1.00
2023-09-19T15:08:55.900Z,1.00
2023-09-19T15:11:24.008Z,1.00
2023-09-19T15:13:55.418Z,1.00
2023-09-19T15:16:23.717Z,1.00
2023-09-19T15:18:53.361Z,1.00
2023-09-19T15:21:21.957Z,1.00
2023-09-19T15:23:51.391Z,1.00
2023-09-19T15:26:21.710Z,1.00
2023-09-19T15:28:50.707Z,1.00
2023-09-19T15:31:19.124Z,1.00
2023-09-19T15:33:47.265Z,1.00
2023-09-19T15:36:17.131Z,1.00
2023-09-19T15:39:07.398Z,1.00
2023-09-19T15:41:38.554Z,1.00
2023-09-19T15:44:14.355Z,1.00
2023-09-19T15:46:42.611Z,1.00
2023-09-19T15:49:11.277Z,5.10
2023-09-19T15:51:39.969Z,1.30
2023-09-19T15:54:14.072Z,2.10
2023-09-19T15:56:43.263Z,1.00
2023-09-19T15:59:13.409Z,4.70
2023-09-19T16:01:44.028Z,3.40
2023-09-19T16:04:13.192Z,2.50
2023-09-19T16:06:42.107Z,4.30
2023-09-19T16:09:11.762Z,4.20
2023-09-19T16:11:42.012Z,4.90
2023-09-19T16:14:15.883Z,6.20
2023-09-19T16:16:45.951Z,4.90
2023-09-19T16:19:14.196Z,5.40
2023-09-19T16:21:44.893Z,5.80
2023-09-19T16:24:14.336Z,4.70
2023-09-19T16:26:42.424Z,7.80
2023-09-19T16:29:11.244Z,6.20
2023-09-19T16:31:39.679Z,8.00
2023-09-19T16:34:08.142Z,4.80
2023-09-19T16:36:36.259Z,7.40
2023-09-19T16:39:05.900Z,7.40
2023-09-19T16:41:35.695Z,6.60
2023-09-19T16:44:05.145Z,6.50
2023-09-19T16:46:33.246Z,5.20
2023-09-19T16:49:04.339Z,5.10
2023-09-19T16:51:34.062Z,4.80
2023-09-19T16:54:02.936Z,6.50
2023-09-19T16:56:34.353Z,6.70
2023-09-19T16:59:05.607Z,8.10
2023-09-19T17:01:34.553Z,9.00
2023-09-19T17:04:04.054Z,8.90
2023-09-19T17:06:32.680Z,10.60
2023-09-19T17:09:00.920Z,11.60
2023-09-19T17:11:29.163Z,13.30
2023-09-19T17:13:58.450Z,13.90
2023-09-19T17:16:30.267Z,13.50
2023-09-19T17:18:59.539Z,12.50
2023-09-19T17:21:28.570Z,14.20
2023-09-19T17:23:59.693Z,15.00
2023-09-19T17:26:29.061Z,16.70
2023-09-19T17:28:57.638Z,19.10
2023-09-19T17:31:30.057Z,21.40
2023-09-19T17:33:58.211Z,24.60
2023-09-19T17:36:28.101Z,25.90
2023-09-19T17:38:57.886Z,25.60
2023-09-19T17:41:26.925Z,25.20
2023-09-19T17:43:56.363Z,24.60
2023-09-19T17:46:26.198Z,25.80
2023-09-19T17:48:59.228Z,30.20
2023-09-19T17:51:28.937Z,33.40
2023-09-19T17:54:00.204Z,34.50
2023-09-19T17:56:29.553Z,34.50
2023-09-19T17:58:59.133Z,33.60
2023-09-19T18:01:29.930Z,35.70
2023-09-19T18:04:01.574Z,37.90
2023-09-19T18:06:32.432Z,39.40
2023-09-19T18:09:01.060Z,39.50
2023-09-19T18:11:29.733Z,40.10
2023-09-19T18:13:59.626Z,38.70
2023-09-19T18:16:29.229Z,37.60
2023-09-19T18:19:01.195Z,38.60
2023-09-19T18:21:29.485Z,39.80
2023-09-19T18:23:58.683Z,39.30
2023-09-19T18:26:27.259Z,39.70
2023-09-19T18:28:56.441Z,40.90
2023-09-19T18:31:25.318Z,41.80
2023-09-19T18:33:55.023Z,42.30
2023-09-19T18:36:25.008Z,43.80
2023-09-19T18:38:53.982Z,44.60
2023-09-19T18:41:22.325Z,43.90
2023-09-19T18:43:50.971Z,43.50
2023-09-19T18:46:19.311Z,44.10
2023-09-19T18:48:48.749Z,44.30
2023-09-19T18:51:19.568Z,43.50
2023-09-19T18:54:09.186Z,43.50
2023-09-19T18:56:42.333Z,44.80
2023-09-19T18:59:11.715Z,44.60
2023-09-19T19:01:39.960Z,45.50
2023-09-19T19:04:08.228Z,47.20
2023-09-19T19:06:36.794Z,49.20
2023-09-19T19:09:06.903Z,50.30
2023-09-19T19:11:35.302Z,49.80
2023-09-19T19:14:04.076Z,50.30
2023-09-19T19:16:33.059Z,50.90
2023-09-19T19:19:02.227Z,48.30
2023-09-19T19:21:31.998Z,48.60
2023-09-19T19:24:00.138Z,48.90
2023-09-19T19:26:29.659Z,49.30
2023-09-19T19:28:57.884Z,50.20
2023-09-19T19:31:26.326Z,50.70
2023-09-19T19:33:55.301Z,50.20
2023-09-19T19:36:24.390Z,49.90
2023-09-19T19:38:53.403Z,52.00
2023-09-19T19:41:23.010Z,50.50
2023-09-19T19:43:52.784Z,51.90
2023-09-19T19:46:21.949Z,51.30
2023-09-19T19:48:53.058Z,51.10
2023-09-19T19:51:21.599Z,49.80
2023-09-19T19:53:49.892Z,52.20
2023-09-19T19:56:18.201Z,54.70
2023-09-19T19:58:46.510Z,54.30
2023-09-19T20:01:17.106Z,56.20
2023-09-19T20:03:45.655Z,57.80
2023-09-19T20:06:14.132Z,59.70
2023-09-19T20:08:42.498Z,59.60
2023-09-19T20:11:11.024Z,56.60
2023-09-19T20:13:44.181Z,55.20
2023-09-19T20:16:13.834Z,55.90
2023-09-19T20:18:43.637Z,58.40
2023-09-19T20:21:14.410Z,60.50
2023-09-19T20:23:45.262Z,60.40
2023-09-19T20:26:13.695Z,60.50
2023-09-19T20:28:42.589Z,59.80
2023-09-19T20:31:12.424Z,59.50
2023-09-19T20:33:40.942Z,57.40
2023-09-19T20:36:12.116Z,57.10
2023-09-19T20:38:40.977Z,56.90
2023-09-19T20:41:09.614Z,57.90
2023-09-19T20:43:42.485Z,57.40
2023-09-19T20:46:12.474Z,55.20
2023-09-19T20:48:42.814Z,55.20
2023-09-19T20:51:15.483Z,54.20
2023-09-19T20:53:46.806Z,54.20
2023-09-19T20:56:16.666Z,53.70
2023-09-19T20:58:45.888Z,54.90
2023-09-19T21:01:14.472Z,54.30
2023-09-19T21:03:44.632Z,55.20
2023-09-19T21:06:17.542Z,58.10
2023-09-19T21:08:46.176Z,56.40
2023-09-19T21:11:16.236Z,57.50
2023-09-19T21:13:46.666Z,55.80
2023-09-19T21:16:16.821Z,57.80
2023-09-19T21:18:46.459Z,57.70
2023-09-19T21:21:16.653Z,57.10
2023-09-19T21:23:46.644Z,55.90
2023-09-19T21:26:15.464Z,57.20
2023-09-19T21:28:44.958Z,56.60
2023-09-19T21:31:14.532Z,56.20
2023-09-19T21:33:44.471Z,55.60
2023-09-19T21:36:20.679Z,56.10
2023-09-19T21:38:51.576Z,57.10
2023-09-19T21:41:21.350Z,54.30
2023-09-19T21:43:51.449Z,54.00
2023-09-19T21:46:20.218Z,52.40
2023-09-19T21:48:49.643Z,52.60
2023-09-19T21:51:18.582Z,52.90
2023-09-19T21:53:46.670Z,52.70
2023-09-19T21:56:18.868Z,55.40
2023-09-19T21:58:47.324Z,54.80
2023-09-19T22:01:22.615Z,55.40
2023-09-19T22:03:50.989Z,56.10
2023-09-19T22:06:19.239Z,56.80
2023-09-19T22:08:48.265Z,56.50
2023-09-19T22:11:19.582Z,56.40
2023-09-19T22:13:48.217Z,55.20
2023-09-19T22:16:17.900Z,55.00
2023-09-19T22:18:48.014Z,55.90
2023-09-19T22:21:23.064Z,55.60
2023-09-19T22:23:54.120Z,57.00
2023-09-19T22:26:26.365Z,57.30
2023-09-19T22:28:56.217Z,56.60
2023-09-19T22:31:27.364Z,52.40
2023-09-19T22:33:57.557Z,53.10
2023-09-19T22:36:32.962Z,53.50
2023-09-19T22:39:02.375Z,53.80
2023-09-19T22:41:33.426Z,55.30
2023-09-19T22:44:01.865Z,56.70
2023-09-19T22:46:30.020Z,57.40
2023-09-19T22:48:58.784Z,57.90
2023-09-19T22:51:37.682Z,55.90
2023-09-19T22:54:12.182Z,55.90
2023-09-19T22:56:42.257Z,55.60
2023-09-19T22:59:12.754Z,57.20
2023-09-19T23:01:42.885Z,55.80
2023-09-19T23:04:16.786Z,57.10
2023-09-19T23:06:50.014Z,56.50
2023-09-19T23:09:22.762Z,64.90
2023-09-19T23:11:56.607Z,67.40
2023-09-19T23:14:31.155Z,67.30
2023-09-19T23:17:01.741Z,67.60
2023-09-19T23:19:31.207Z,68.60
2023-09-19T23:22:13.581Z,67.40
2023-09-19T23:24:42.951Z,66.10
2023-09-19T23:27:24.998Z,66.10
2023-09-19T23:29:53.548Z,65.90
2023-09-19T23:32:22.244Z,67.30
2023-09-19T23:34:50.550Z,66.90
2023-09-19T23:37:20.921Z,68.20
2023-09-19T23:39:50.786Z,67.60
2023-09-19T23:42:21.694Z,67.40
2023-09-19T23:44:52.115Z,68.00
2023-09-19T23:47:20.366Z,67.10
2023-09-19T23:49:50.689Z,65.50
2023-09-19T23:52:19.888Z,66.80
2023-09-19T23:54:48.813Z,65.80
2023-09-19T23:57:18.230Z,65.50
2023-09-19T23:59:48.115Z,65.40
